createdAt,value
2017-10-08T00:00:40.660Z,11.50
2017-10-08T00:02:43.380Z,11.50
2017-10-08T00:04:46.181Z,11.60
2017-10-08T00:06:49.601Z,11.60
2017-10-08T00:08:52.326Z,11.50
2017-10-08T00:10:55.004Z,11.70
2017-10-08T00:12:57.773Z,11.60
2017-10-08T00:15:00.450Z,11.60
2017-10-08T00:17:03.158Z,11.60
2017-10-08T00:19:06.738Z,11.60
2017-10-08T00:21:09.491Z,11.60
2017-10-08T00:23:12.184Z,11.60
2017-10-08T00:25:14.868Z,11.60
2017-10-08T00:27:17.601Z,11.60
2017-10-08T00:29:20.287Z,11.70
2017-10-08T00:31:23.049Z,11.70
2017-10-08T00:33:25.723Z,11.70
2017-10-08T00:35:30.772Z,11.70
2017-10-08T00:37:33.433Z,11.70
2017-10-08T00:39:36.186Z,11.60
2017-10-08T00:41:39.636Z,11.50
2017-10-08T00:43:42.331Z,11.50
2017-10-08T00:45:45.064Z,11.60
2017-10-08T00:47:47.766Z,11.70
2017-10-08T00:49:50.484Z,11.80
2017-10-08T00:51:53.903Z,11.90
2017-10-08T00:53:56.627Z,11.90
2017-10-08T00:55:59.391Z,11.80
2017-10-08T00:58:02.246Z,11.80
2017-10-08T01:00:05.111Z,11.80
2017-10-08T01:02:07.794Z,11.70
2017-10-08T01:04:10.479Z,11.60
2017-10-08T01:06:13.297Z,11.60
2017-10-08T01:08:16.036Z,11.50
2017-10-08T01:10:18.696Z,11.50
2017-10-08T01:12:22.159Z,11.50
2017-10-08T01:14:24.901Z,11.50
2017-10-08T01:16:27.562Z,11.60
2017-10-08T01:18:30.264Z,11.60
2017-10-08T01:20:33.119Z,11.50
2017-10-08T01:22:35.898Z,11.50
2017-10-08T01:24:38.678Z,11.50
2017-10-08T01:26:41.422Z,11.40
2017-10-08T01:28:44.981Z,11.30
2017-10-08T01:30:47.717Z,11.30
2017-10-08T01:32:50.417Z,11.20
2017-10-08T01:34:53.212Z,11.20
2017-10-08T01:36:56.021Z,11.20
2017-10-08T01:38:59.528Z,11.20
2017-10-08T01:41:03.013Z,11.20
2017-10-08T01:43:05.685Z,11.20
2017-10-08T01:45:08.407Z,11.20
2017-10-08T01:47:11.134Z,11.20
2017-10-08T01:49:13.861Z,11.20
2017-10-08T01:51:16.564Z,11.10
2017-10-08T01:53:19.245Z,11.20
2017-10-08T01:55:21.945Z,11.10
2017-10-08T01:57:24.684Z,11.10
2017-10-08T01:59:27.371Z,11.00
2017-10-08T02:01:30.037Z,11.10
2017-10-08T02:03:32.775Z,11.10
2017-10-08T02:05:36.292Z,11.20
2017-10-08T02:07:39.073Z,11.20
2017-10-08T02:09:41.781Z,11.30
2017-10-08T02:11:44.617Z,11.30
2017-10-08T02:13:47.371Z,11.40
2017-10-08T02:15:50.830Z,11.40
2017-10-08T02:17:53.517Z,11.40
2017-10-08T02:19:56.254Z,11.40
2017-10-08T02:21:59.032Z,11.30
2017-10-08T02:24:01.791Z,11.40
2017-10-08T02:26:05.203Z,11.50
2017-10-08T02:28:07.916Z,11.40
2017-10-08T02:30:10.639Z,11.60
2017-10-08T02:32:14.075Z,11.60
2017-10-08T02:34:16.772Z,11.70
2017-10-08T02:36:19.444Z,11.60
2017-10-08T02:38:22.144Z,11.70
2017-10-08T02:40:25.138Z,11.70
2017-10-08T02:42:28.574Z,11.70
2017-10-08T02:44:31.345Z,11.70
2017-10-08T02:46:34.024Z,11.70
2017-10-08T02:48:36.750Z,11.80
2017-10-08T02:50:39.513Z,11.70
2017-10-08T02:52:42.189Z,11.60
2017-10-08T02:54:44.835Z,11.60
2017-10-08T02:56:47.512Z,11.70
2017-10-08T02:58:50.200Z,11.60
2017-10-08T03:00:52.852Z,11.60
2017-10-08T03:02:55.544Z,11.60
2017-10-08T03:04:58.212Z,11.60
2017-10-08T03:07:00.916Z,11.60
2017-10-08T03:09:03.631Z,11.60
2017-10-08T03:11:07.172Z,11.60
2017-10-08T03:13:09.852Z,11.60
2017-10-08T03:15:14.375Z,11.60
2017-10-08T03:17:17.128Z,11.60
2017-10-08T03:19:19.774Z,11.50
2017-10-08T03:21:23.289Z,11.60
2017-10-08T03:23:25.981Z,11.60
2017-10-08T03:25:28.668Z,11.60
2017-10-08T03:27:31.345Z,11.50
2017-10-08T03:29:34.027Z,11.50
2017-10-08T03:31:36.713Z,11.40
2017-10-08T03:33:39.404Z,11.40
2017-10-08T03:35:42.061Z,11.40
2017-10-08T03:37:44.783Z,11.40
2017-10-08T03:39:48.251Z,11.50
2017-10-08T03:41:50.975Z,11.50
2017-10-08T03:43:53.709Z,11.40
2017-10-08T03:45:56.403Z,11.40
2017-10-08T03:47:59.845Z,11.50
2017-10-08T03:50:02.508Z,11.50
2017-10-08T03:52:05.273Z,11.50
2017-10-08T03:54:08.034Z,11.50
2017-10-08T03:56:11.464Z,11.50
2017-10-08T03:58:14.230Z,11.50
2017-10-08T04:00:17.016Z,11.60
2017-10-08T04:02:19.704Z,11.60
2017-10-08T04:04:22.543Z,11.70
2017-10-08T04:06:25.970Z,11.70
2017-10-08T04:08:28.707Z,11.70
2017-10-08T04:10:31.397Z,11.70
2017-10-08T04:12:34.058Z,11.80
2017-10-08T04:14:37.591Z,11.70
2017-10-08T04:16:40.281Z,11.70
2017-10-08T04:18:43.012Z,11.70
2017-10-08T04:20:45.839Z,11.80
2017-10-08T04:22:48.536Z,11.80
2017-10-08T04:24:51.220Z,11.70
2017-10-08T04:26:53.951Z,11.70
2017-10-08T04:28:56.725Z,11.70
2017-10-08T04:30:59.470Z,11.70
2017-10-08T04:33:03.004Z,11.70
2017-10-08T04:35:05.698Z,11.70
2017-10-08T04:37:08.355Z,11.70
2017-10-08T04:39:11.054Z,11.70
2017-10-08T04:41:13.914Z,11.70
2017-10-08T04:43:16.572Z,11.70
2017-10-08T04:45:19.420Z,11.60
2017-10-08T04:47:22.077Z,11.60
2017-10-08T04:49:24.747Z,11.50
2017-10-08T04:51:27.496Z,11.50
2017-10-08T04:53:30.155Z,11.50
2017-10-08T04:55:32.862Z,11.40
2017-10-08T04:57:35.627Z,11.40
2017-10-08T04:59:38.291Z,11.40
2017-10-08T05:01:40.960Z,11.30
2017-10-08T05:03:43.637Z,11.40
2017-10-08T05:05:46.461Z,11.40
2017-10-08T05:07:49.270Z,11.40
2017-10-08T05:09:51.969Z,11.40
2017-10-08T05:11:55.389Z,11.30
2017-10-08T05:13:58.166Z,11.30
2017-10-08T05:16:00.842Z,11.30
2017-10-08T05:18:03.579Z,11.40
2017-10-08T05:20:06.349Z,11.40
2017-10-08T05:22:09.005Z,11.40
2017-10-08T05:24:11.981Z,11.40
2017-10-08T05:26:15.502Z,11.40
2017-10-08T05:28:18.235Z,11.40
2017-10-08T05:30:21.182Z,11.40
2017-10-08T05:32:27.597Z,11.30
2017-10-08T05:34:31.069Z,11.30
2017-10-08T05:36:33.869Z,11.30
2017-10-08T05:38:36.537Z,11.30
2017-10-08T05:40:39.180Z,11.40
2017-10-08T05:42:42.696Z,11.50
2017-10-08T05:44:45.358Z,11.50
2017-10-08T05:46:48.166Z,11.50
2017-10-08T05:48:51.960Z,11.60
2017-10-08T05:50:54.608Z,11.60
2017-10-08T05:52:58.072Z,11.70
2017-10-08T05:55:00.728Z,11.70
2017-10-08T05:57:04.832Z,11.70
2017-10-08T05:59:07.514Z,11.80
2017-10-08T06:01:10.236Z,11.80
2017-10-08T06:03:12.938Z,11.80
2017-10-08T06:05:15.612Z,11.80
2017-10-08T06:07:19.430Z,11.90
2017-10-08T06:09:22.085Z,11.90
2017-10-08T06:11:24.923Z,11.90
2017-10-08T06:13:27.582Z,11.90
2017-10-08T06:15:30.250Z,11.90
2017-10-08T06:17:33.002Z,11.90
2017-10-08T06:19:35.663Z,11.90
2017-10-08T06:21:38.409Z,11.90
2017-10-08T06:23:41.189Z,11.90
2017-10-08T06:25:44.034Z,11.90
2017-10-08T06:27:46.845Z,11.90
2017-10-08T06:29:49.544Z,12.00
2017-10-08T06:31:52.976Z,12.00
2017-10-08T06:33:55.697Z,12.00
2017-10-08T06:35:58.391Z,12.00
2017-10-08T06:38:01.812Z,12.00
2017-10-08T06:40:04.487Z,12.00
2017-10-08T06:42:07.268Z,12.00
2017-10-08T06:44:10.045Z,12.00
2017-10-08T06:46:12.699Z,12.00
2017-10-08T06:48:16.185Z,12.00
2017-10-08T06:50:19.614Z,12.00
2017-10-08T06:52:22.434Z,12.00
2017-10-08T06:54:25.192Z,12.00
2017-10-08T06:56:27.877Z,12.10
2017-10-08T06:58:30.691Z,12.10
2017-10-08T07:00:34.221Z,12.30
2017-10-08T07:02:36.881Z,12.20
2017-10-08T07:04:39.593Z,12.30
2017-10-08T07:06:45.147Z,12.40
2017-10-08T07:08:48.683Z,12.80
2017-10-08T07:10:52.097Z,13.20
2017-10-08T07:12:54.894Z,13.20
2017-10-08T07:14:57.559Z,13.50
2017-10-08T07:17:00.313Z,13.90
2017-10-08T07:19:03.776Z,13.00
2017-10-08T07:21:06.552Z,13.00
2017-10-08T07:23:09.205Z,12.80
2017-10-08T07:25:11.909Z,12.70
2017-10-08T07:27:14.584Z,12.70
2017-10-08T07:29:17.236Z,12.70
2017-10-08T07:31:19.913Z,12.90
2017-10-08T07:33:22.670Z,12.90
2017-10-08T07:35:25.336Z,12.90
2017-10-08T07:37:28.961Z,15.00
2017-10-08T07:39:31.686Z,14.90
2017-10-08T07:41:34.384Z,14.90
2017-10-08T07:43:37.861Z,14.00
2017-10-08T07:45:40.544Z,14.00
2017-10-08T07:47:43.262Z,13.90
2017-10-08T07:49:45.997Z,13.40
2017-10-08T07:51:48.820Z,13.20
2017-10-08T07:53:51.466Z,13.30
2017-10-08T07:55:54.156Z,13.30
2017-10-08T07:57:56.834Z,13.10
2017-10-08T07:59:59.510Z,13.30
2017-10-08T08:02:02.207Z,13.30
2017-10-08T08:04:04.896Z,13.50
2017-10-08T08:06:07.720Z,14.30
2017-10-08T08:08:11.159Z,15.00
2017-10-08T08:10:13.972Z,15.00
2017-10-08T08:12:16.722Z,16.20
2017-10-08T08:14:19.368Z,15.50
2017-10-08T08:16:22.846Z,16.80
2017-10-08T08:18:26.257Z,15.60
2017-10-08T08:20:28.992Z,15.60
2017-10-08T08:22:31.689Z,14.60
2017-10-08T08:24:35.105Z,15.20
2017-10-08T08:26:37.799Z,15.20
2017-10-08T08:28:40.470Z,15.20
2017-10-08T08:30:43.142Z,14.50
2017-10-08T08:32:45.798Z,13.90
2017-10-08T08:34:49.241Z,13.80
2017-10-08T08:36:51.945Z,13.80
2017-10-08T08:38:55.431Z,14.10
2017-10-08T08:40:58.141Z,14.00
2017-10-08T08:43:00.889Z,13.70
2017-10-08T08:45:03.748Z,13.60
2017-10-08T08:47:06.454Z,14.20
2017-10-08T08:49:09.276Z,14.90
2017-10-08T08:51:11.946Z,14.90
2017-10-08T08:53:14.736Z,15.20
2017-10-08T08:55:17.398Z,15.90
2017-10-08T08:57:20.227Z,16.90
2017-10-08T08:59:22.900Z,16.40
2017-10-08T09:01:25.557Z,17.10
2017-10-08T09:03:28.339Z,17.90
2017-10-08T09:05:32.118Z,17.30
2017-10-08T09:07:34.903Z,17.30
2017-10-08T09:09:37.548Z,16.00
2017-10-08T09:11:41.098Z,14.80
2017-10-08T09:13:43.912Z,14.70
2017-10-08T09:15:47.333Z,20.00
2017-10-08T09:17:51.162Z,19.50
2017-10-08T09:19:54.965Z,18.50
2017-10-08T09:21:58.762Z,18.80
2017-10-08T09:24:01.455Z,18.70
2017-10-08T09:26:04.145Z,17.30
2017-10-08T09:28:06.830Z,16.80
2017-10-08T09:30:09.739Z,16.50
2017-10-08T09:32:12.514Z,16.30
2017-10-08T09:34:16.049Z,15.60
2017-10-08T09:36:18.765Z,15.60
2017-10-08T09:38:21.404Z,15.40
2017-10-08T09:40:24.087Z,15.10
2017-10-08T09:42:26.845Z,15.10
2017-10-08T09:44:29.488Z,15.40
2017-10-08T09:46:32.301Z,15.70
2017-10-08T09:48:35.041Z,15.80
2017-10-08T09:50:38.484Z,16.30
2017-10-08T09:52:41.185Z,16.30
2017-10-08T09:54:43.867Z,16.30
2017-10-08T09:56:46.518Z,16.20
2017-10-08T09:58:49.447Z,16.00
2017-10-08T10:00:52.889Z,15.70
2017-10-08T10:02:55.632Z,15.60
2017-10-08T10:04:59.042Z,15.90
2017-10-08T10:07:01.827Z,15.80
2017-10-08T10:09:04.548Z,16.00
2017-10-08T10:11:07.206Z,16.30
2017-10-08T10:13:09.920Z,16.60
2017-10-08T10:15:12.647Z,17.30
2017-10-08T10:17:15.337Z,16.70
2017-10-08T10:19:18.027Z,16.40
2017-10-08T10:21:20.669Z,16.60
2017-10-08T10:23:23.470Z,16.50
2017-10-08T10:25:26.196Z,16.00
2017-10-08T10:27:28.855Z,15.80
2017-10-08T10:29:31.541Z,15.60
2017-10-08T10:31:34.414Z,15.70
2017-10-08T10:33:37.355Z,15.90
2017-10-08T10:35:40.077Z,15.50
2017-10-08T10:37:43.520Z,15.50
2017-10-08T10:39:46.185Z,15.50
2017-10-08T10:41:48.836Z,15.80
2017-10-08T10:43:52.282Z,15.70
2017-10-08T10:45:55.031Z,15.70
2017-10-08T10:47:57.735Z,15.80
2017-10-08T10:50:00.408Z,15.70
2017-10-08T10:52:03.166Z,15.90
2017-10-08T10:54:05.837Z,15.70
2017-10-08T10:56:08.558Z,15.50
2017-10-08T10:58:11.261Z,15.60
2017-10-08T11:00:14.686Z,15.80
2017-10-08T11:02:17.559Z,15.80
2017-10-08T11:04:20.234Z,15.80
2017-10-08T11:06:22.924Z,15.50
2017-10-08T11:08:25.757Z,15.40
2017-10-08T11:10:33.815Z,15.30
2017-10-08T11:12:36.514Z,15.40
2017-10-08T11:14:39.370Z,15.40
2017-10-08T11:16:42.053Z,15.50
2017-10-08T11:20:49.166Z,16.10
2017-10-08T11:22:51.982Z,16.20
2017-10-08T11:24:55.501Z,16.10
2017-10-08T11:26:59.990Z,16.10
2017-10-08T11:29:02.670Z,16.10
2017-10-08T11:31:06.191Z,16.20
2017-10-08T11:33:08.895Z,16.20
2017-10-08T11:35:12.367Z,16.40
2017-10-08T11:37:15.090Z,16.40
2017-10-08T11:39:18.001Z,16.50
2017-10-08T11:41:21.578Z,16.40
2017-10-08T11:43:24.424Z,16.40
2017-10-08T11:45:28.049Z,15.60
2017-10-08T11:47:30.847Z,15.60
2017-10-08T11:49:34.290Z,14.90
2017-10-08T11:51:36.975Z,14.90
2017-10-08T11:53:39.668Z,14.50
2017-10-08T11:55:42.459Z,14.30
2017-10-08T11:57:45.166Z,14.60
2017-10-08T11:59:48.745Z,14.70
2017-10-08T12:01:52.259Z,14.50
2017-10-08T12:03:54.938Z,14.50
2017-10-08T12:05:57.600Z,14.20
2017-10-08T12:08:00.331Z,14.00
2017-10-08T12:10:03.052Z,13.80
2017-10-08T12:12:05.881Z,13.70
2017-10-08T12:14:08.557Z,13.60
2017-10-08T12:16:11.242Z,13.60
2017-10-08T12:18:13.961Z,13.60
2017-10-08T12:20:20.853Z,13.50
2017-10-08T12:22:24.287Z,13.40
2017-10-08T12:24:26.939Z,13.40
2017-10-08T12:26:29.699Z,13.40
2017-10-08T12:28:32.400Z,13.40
2017-10-08T12:30:35.277Z,13.30
2017-10-08T12:32:38.001Z,13.40
2017-10-08T12:34:40.661Z,13.40
2017-10-08T12:36:43.339Z,13.50
2017-10-08T12:38:46.011Z,13.60
2017-10-08T12:40:48.700Z,13.80
2017-10-08T12:42:52.482Z,14.00
2017-10-08T12:44:55.159Z,13.90
2017-10-08T12:46:57.847Z,13.90
2017-10-08T12:49:00.582Z,14.00
2017-10-08T12:51:03.332Z,14.10
2017-10-08T12:53:06.075Z,14.10
2017-10-08T12:55:08.734Z,14.10
2017-10-08T12:57:11.442Z,14.30
2017-10-08T12:59:14.131Z,14.30
2017-10-08T13:01:17.551Z,14.30
2017-10-08T13:03:20.236Z,14.30
2017-10-08T13:05:22.929Z,14.30
2017-10-08T13:07:25.640Z,14.10
2017-10-08T13:09:28.415Z,14.20
2017-10-08T13:11:31.151Z,14.00
2017-10-08T13:13:38.429Z,13.90
2017-10-08T13:15:41.273Z,14.00
2017-10-08T13:17:43.921Z,14.00
2017-10-08T13:19:46.604Z,14.20
2017-10-08T13:21:49.313Z,14.20
2017-10-08T13:23:51.987Z,14.30
2017-10-08T13:25:55.510Z,14.40
2017-10-08T13:27:58.178Z,14.40
2017-10-08T13:30:00.845Z,14.40
2017-10-08T13:32:04.258Z,14.20
2017-10-08T13:34:07.047Z,14.20
2017-10-08T13:36:09.848Z,14.10
2017-10-08T13:38:12.510Z,14.20
2017-10-08T13:40:15.191Z,14.30
2017-10-08T13:42:17.944Z,14.50
2017-10-08T13:44:20.701Z,14.40
2017-10-08T13:46:24.150Z,14.40
2017-10-08T13:48:26.859Z,14.40
2017-10-08T13:50:30.286Z,14.70
2017-10-08T13:52:32.978Z,14.70
2017-10-08T13:54:35.689Z,14.80
2017-10-08T13:56:38.337Z,14.80
2017-10-08T13:58:41.103Z,14.90
2017-10-08T14:00:43.750Z,15.00
2017-10-08T14:02:47.492Z,14.90
2017-10-08T14:04:50.251Z,14.90
2017-10-08T14:06:52.916Z,14.70
2017-10-08T14:08:55.689Z,14.50
2017-10-08T14:10:58.443Z,14.30
2017-10-08T14:13:01.095Z,14.10
2017-10-08T14:15:03.876Z,14.00
2017-10-08T14:17:06.648Z,13.90
2017-10-08T14:19:09.400Z,13.90
2017-10-08T14:21:12.117Z,14.00
2017-10-08T14:23:14.811Z,14.10
2017-10-08T14:25:18.347Z,13.80
2017-10-08T14:27:21.022Z,13.80
2017-10-08T14:29:23.876Z,13.80
2017-10-08T14:31:26.546Z,13.70
2017-10-08T14:33:29.993Z,13.80
2017-10-08T14:35:33.957Z,13.80
2017-10-08T14:37:36.761Z,13.90
2017-10-08T14:39:39.535Z,13.90
2017-10-08T14:41:42.231Z,13.80
2017-10-08T14:43:45.025Z,13.70
2017-10-08T14:45:48.485Z,13.70
2017-10-08T14:47:51.184Z,13.70
2017-10-08T14:49:54.647Z,13.60
2017-10-08T14:51:57.323Z,13.60
2017-10-08T14:53:59.998Z,13.60
2017-10-08T14:56:02.784Z,13.60
2017-10-08T14:58:05.432Z,13.60
2017-10-08T15:00:08.959Z,13.60
2017-10-08T15:02:11.612Z,13.60
2017-10-08T15:04:15.200Z,13.70
2017-10-08T15:06:18.733Z,13.60
2017-10-08T15:08:21.388Z,13.60
2017-10-08T15:10:24.171Z,13.60
2017-10-08T15:12:26.864Z,13.80
2017-10-08T15:14:29.547Z,13.70
2017-10-08T15:16:32.405Z,13.60
2017-10-08T15:18:35.064Z,13.70
2017-10-08T15:20:38.572Z,13.60
2017-10-08T15:22:41.253Z,13.50
2017-10-08T15:24:43.902Z,13.50
2017-10-08T15:26:46.636Z,13.40
2017-10-08T15:28:49.337Z,13.50
2017-10-08T15:30:52.010Z,13.40
2017-10-08T15:32:54.649Z,13.40
2017-10-08T15:34:57.325Z,13.60
2017-10-08T15:37:00.048Z,13.60
2017-10-08T15:39:02.724Z,13.70
2017-10-08T15:41:05.453Z,13.80
2017-10-08T15:43:08.185Z,13.90
2017-10-08T15:45:11.958Z,13.90
2017-10-08T15:47:14.675Z,13.70
2017-10-08T15:49:18.112Z,13.60
2017-10-08T15:51:20.856Z,13.60
2017-10-08T15:53:24.313Z,13.50
2017-10-08T15:55:26.993Z,13.50
2017-10-08T15:57:29.741Z,13.50
2017-10-08T15:59:32.517Z,13.50
2017-10-08T16:01:35.154Z,13.60
2017-10-08T16:03:38.618Z,13.40
2017-10-08T16:05:41.354Z,13.40
2017-10-08T16:07:44.042Z,13.40
2017-10-08T16:09:46.797Z,13.30
2017-10-08T16:11:50.281Z,13.00
2017-10-08T16:13:53.854Z,13.00
2017-10-08T16:15:56.560Z,13.00
2017-10-08T16:17:59.368Z,12.90
2017-10-08T16:20:02.134Z,12.90
2017-10-08T16:22:04.909Z,12.80
2017-10-08T16:24:08.631Z,12.70
2017-10-08T16:26:11.295Z,12.60
2017-10-08T16:28:14.058Z,12.60
2017-10-08T16:30:16.972Z,12.50
2017-10-08T16:32:19.622Z,12.40
2017-10-08T16:34:22.311Z,12.40
2017-10-08T16:36:24.974Z,12.40
2017-10-08T16:38:28.610Z,12.40
2017-10-08T16:40:31.431Z,12.30
2017-10-08T16:42:34.870Z,12.40
2017-10-08T16:44:38.352Z,12.30
2017-10-08T16:46:41.074Z,12.30
2017-10-08T16:48:43.795Z,12.30
2017-10-08T16:50:46.479Z,12.20
2017-10-08T16:52:49.175Z,12.20
2017-10-08T16:54:51.931Z,12.10
2017-10-08T16:56:54.591Z,12.00
2017-10-08T17:03:06.741Z,11.60
2017-10-08T17:05:09.722Z,11.60
2017-10-08T17:07:12.440Z,11.60
2017-10-08T17:09:15.103Z,11.60
2017-10-08T17:11:17.779Z,11.50
2017-10-08T17:13:20.483Z,11.60
2017-10-08T17:15:23.927Z,11.50
2017-10-08T17:17:26.653Z,11.50
2017-10-08T17:19:29.369Z,11.40
2017-10-08T17:21:32.129Z,11.50
2017-10-08T17:23:35.591Z,11.60
2017-10-08T17:25:38.226Z,11.60
2017-10-08T17:27:40.990Z,11.70
2017-10-08T17:29:43.709Z,11.70
2017-10-08T17:31:46.623Z,11.60
2017-10-08T17:33:50.107Z,11.60
2017-10-08T17:35:53.647Z,11.70
2017-10-08T17:37:56.355Z,11.70
2017-10-08T17:39:59.172Z,11.70
2017-10-08T17:42:02.592Z,11.70
2017-10-08T17:44:05.657Z,11.70
2017-10-08T17:46:10.661Z,11.70
2017-10-08T17:48:13.329Z,11.70
2017-10-08T17:50:15.969Z,11.70
2017-10-08T17:52:18.687Z,11.70
2017-10-08T17:54:22.109Z,11.80
2017-10-08T17:56:25.672Z,11.80
2017-10-08T17:58:28.462Z,11.80
2017-10-08T18:00:31.127Z,11.80
2017-10-08T18:02:33.997Z,11.60
2017-10-08T18:04:36.692Z,11.30
2017-10-08T18:06:39.368Z,11.00
2017-10-08T18:08:42.122Z,10.90
2017-10-08T18:10:44.912Z,10.80
2017-10-08T18:12:47.715Z,10.60
2017-10-08T18:14:51.400Z,10.60
2017-10-08T18:16:54.198Z,10.60
2017-10-08T18:18:57.665Z,10.50
2017-10-08T18:21:00.404Z,10.50
2017-10-08T18:23:03.159Z,10.50
2017-10-08T18:25:06.676Z,10.60
2017-10-08T18:27:09.468Z,10.60
2017-10-08T18:29:12.204Z,10.40
2017-10-08T18:31:15.633Z,10.30
2017-10-08T18:33:18.431Z,10.20
2017-10-08T18:35:21.132Z,10.30
2017-10-08T18:37:23.910Z,10.30
2017-10-08T18:39:27.688Z,10.30
2017-10-08T18:41:30.425Z,10.30
2017-10-08T18:43:33.128Z,10.20
2017-10-08T18:45:35.779Z,10.30
2017-10-08T18:47:38.471Z,10.30
2017-10-08T18:49:41.351Z,10.40
2017-10-08T18:51:44.031Z,10.40
2017-10-08T18:53:46.851Z,10.30
2017-10-08T18:55:49.639Z,10.00
2017-10-08T18:57:52.316Z,9.70
2017-10-08T18:59:55.131Z,9.50
2017-10-08T19:01:57.922Z,9.40
2017-10-08T19:04:00.573Z,9.20
2017-10-08T19:06:05.131Z,9.20
2017-10-08T19:08:07.821Z,9.10
2017-10-08T19:10:10.545Z,9.10
2017-10-08T19:12:14.019Z,9.00
2017-10-08T19:14:16.774Z,9.00
2017-10-08T19:16:19.481Z,9.00
2017-10-08T19:18:23.105Z,9.00
2017-10-08T19:20:25.950Z,8.90
2017-10-08T19:22:28.611Z,9.00
2017-10-08T19:24:31.372Z,9.00
2017-10-08T19:26:34.782Z,8.80
2017-10-08T19:28:37.431Z,8.80
2017-10-08T19:30:40.226Z,8.80
2017-10-08T19:32:42.953Z,8.70
2017-10-08T19:34:46.459Z,8.70
2017-10-08T19:36:49.280Z,8.70
2017-10-08T19:38:52.904Z,8.70
2017-10-08T19:40:55.604Z,8.60
2017-10-08T19:42:59.177Z,8.50
2017-10-08T19:45:01.859Z,8.50
2017-10-08T19:47:04.553Z,8.50
2017-10-08T19:49:08.071Z,8.50
2017-10-08T19:51:10.809Z,8.50
2017-10-08T19:53:13.468Z,8.40
2017-10-08T19:55:16.176Z,8.30
2017-10-08T19:57:19.601Z,8.30
2017-10-08T19:59:22.373Z,8.30
2017-10-08T20:01:25.159Z,8.30
2017-10-08T20:03:27.827Z,8.30
2017-10-08T20:05:30.658Z,8.30
2017-10-08T20:07:33.340Z,8.30
2017-10-08T20:09:36.265Z,8.20
2017-10-08T20:11:39.004Z,8.20
2017-10-08T20:13:41.680Z,8.10
2017-10-08T20:15:45.133Z,8.10
2017-10-08T20:17:48.938Z,8.10
2017-10-08T20:19:51.696Z,8.10
2017-10-08T20:21:54.487Z,8.10
2017-10-08T20:23:57.121Z,8.30
2017-10-08T20:26:00.612Z,8.60
2017-10-08T20:28:04.057Z,8.70
2017-10-08T20:30:06.813Z,8.70
2017-10-08T20:32:09.643Z,8.80
2017-10-08T20:34:12.306Z,8.90
2017-10-08T20:36:15.845Z,9.10
2017-10-08T20:38:19.302Z,9.20
2017-10-08T20:40:22.230Z,9.20
2017-10-08T20:42:25.018Z,9.30
2017-10-08T20:44:27.733Z,9.30
2017-10-08T20:46:31.197Z,9.40
2017-10-08T20:48:33.945Z,9.40
2017-10-08T20:50:37.632Z,9.60
2017-10-08T20:52:40.285Z,9.60
2017-10-08T20:54:42.945Z,9.70
2017-10-08T20:56:45.701Z,9.70
2017-10-08T20:58:48.357Z,9.70
2017-10-08T21:00:51.054Z,9.70
2017-10-08T21:02:53.738Z,9.80
2017-10-08T21:04:56.476Z,9.80
2017-10-08T21:06:59.924Z,9.90
2017-10-08T21:09:02.588Z,9.90
2017-10-08T21:11:05.412Z,9.90
2017-10-08T21:13:08.181Z,9.90
2017-10-08T21:15:11.644Z,10.00
2017-10-08T21:17:14.404Z,10.00
2017-10-08T21:19:17.094Z,10.10
2017-10-08T21:21:19.968Z,10.10
2017-10-08T21:23:22.820Z,10.10
2017-10-08T21:25:26.369Z,10.20
2017-10-08T21:27:29.083Z,10.20
2017-10-08T21:29:32.514Z,10.20
2017-10-08T21:31:35.321Z,10.20
2017-10-08T21:33:37.979Z,10.20
2017-10-08T21:35:40.656Z,10.20
2017-10-08T21:37:43.384Z,10.20
2017-10-08T21:39:46.825Z,10.10
2017-10-08T21:41:49.683Z,10.10
2017-10-08T21:43:52.386Z,10.10
2017-10-08T21:45:55.043Z,10.10
2017-10-08T21:47:57.746Z,10.10
2017-10-08T21:50:00.427Z,10.10
2017-10-08T21:52:03.197Z,10.10
2017-10-08T21:54:05.957Z,10.10
2017-10-08T21:56:08.651Z,10.10
2017-10-08T21:58:11.315Z,10.10
2017-10-08T22:00:13.996Z,10.00
2017-10-08T22:02:16.671Z,10.00
2017-10-08T22:04:19.322Z,10.10
2017-10-08T22:06:22.747Z,10.20
2017-10-08T22:08:25.443Z,10.20
2017-10-08T22:10:28.129Z,10.20
2017-10-08T22:12:30.788Z,10.20
2017-10-08T22:14:33.545Z,10.30
2017-10-08T22:16:36.315Z,10.30
2017-10-08T22:18:38.977Z,10.30
2017-10-08T22:20:41.724Z,10.40
2017-10-08T22:22:44.370Z,10.40
2017-10-08T22:24:47.165Z,10.40
2017-10-08T22:26:49.945Z,10.40
2017-10-08T22:28:52.590Z,10.30
2017-10-08T22:30:55.267Z,10.30
2017-10-08T22:32:58.072Z,10.30
2017-10-08T22:35:00.788Z,10.30
2017-10-08T22:37:04.289Z,10.40
2017-10-08T22:39:07.010Z,10.40
2017-10-08T22:41:09.748Z,10.40
2017-10-08T22:43:12.399Z,10.30
2017-10-08T22:45:15.956Z,10.10
2017-10-08T22:47:18.703Z,10.10
2017-10-08T22:49:21.549Z,10.10
2017-10-08T22:51:26.460Z,10.10
2017-10-08T22:53:29.134Z,10.10
2017-10-08T22:55:31.945Z,10.20
2017-10-08T22:57:35.428Z,10.20
2017-10-08T22:59:38.100Z,10.20
2017-10-08T23:01:40.862Z,10.20
2017-10-08T23:03:45.118Z,10.30
2017-10-08T23:05:48.640Z,10.30
2017-10-08T23:07:51.340Z,10.30
2017-10-08T23:09:54.059Z,10.30
2017-10-08T23:11:56.732Z,10.30
2017-10-08T23:14:00.178Z,10.30
2017-10-08T23:16:02.929Z,10.30
2017-10-08T23:18:05.572Z,10.30
2017-10-08T23:20:08.272Z,10.20
2017-10-08T23:22:11.039Z,10.10
2017-10-08T23:24:14.477Z,9.90
2017-10-08T23:26:17.142Z,9.90
2017-10-08T23:28:19.806Z,9.80
2017-10-08T23:30:22.469Z,9.60
2017-10-08T23:32:25.955Z,9.20
2017-10-08T23:34:29.355Z,9.10
2017-10-08T23:36:32.137Z,9.00
2017-10-08T23:38:34.777Z,9.00
2017-10-08T23:40:37.460Z,8.90
2017-10-08T23:42:40.211Z,8.90
2017-10-08T23:44:42.856Z,8.80
2017-10-08T23:46:45.509Z,8.70
2017-10-08T23:48:48.924Z,8.60
2017-10-08T23:50:51.646Z,8.60
2017-10-08T23:52:54.370Z,8.60
2017-10-08T23:54:57.034Z,8.60
2017-10-08T23:57:00.520Z,8.70
2017-10-08T23:59:04.000Z,8.80
